Station History

Weather Underground - logo

Station Historical Data
Daily Summary for December 31, 2017 Units:  Both    English   Metric
« Previous Day
Next Day »
Daily Weekly Monthly Yearly Custom
  High: Low: Average:
Temperature: 67.5 °F /  19.7 °C 37.7 °F /  3.2 °C 49.3 °F /  9.6 °C
Dew Point: 44.5 °F /  6.9 °C 35.3 °F /  1.8 °C 39.6 °F /  4.2 °C
Humidity: 93 % 37 % 73 %
Wind Speed: 2.3 mph /  3.7 km/h - 0.2 mph /  0.3 km/h
Wind Gust: 2.3 mph /  3.7 km/h - -
Wind:- - SW
Pressure: 30.19 in /  1022.2 hPa 30.04 in /  1017.2 hPa -
Precipitation: 0.00 in /  0 mm    
Historical Graphs
 
 
Tabular Data for December 31, 2017
Time Temperature Dew Point Pressure Wind Wind Speed Wind Gust Humidity Rainfall Rate (Hourly)
00:04 42.5 °F /  5.8 °C 38.9 °F /  3.8 °C 30.06 in /  1017.8 hPa Calm     87 % 0.00 in /  0 mm
00:09 42.7 °F /  5.9 °C 39.1 °F /  3.9 °C 30.06 in /  1017.8 hPa Calm     87 % 0.00 in /  0 mm
00:11 42.7 °F /  5.9 °C 39.1 °F /  3.9 °C 30.06 in /  1017.8 hPa Calm     87 % 0.00 in /  0 mm
00:15 42.6 °F /  5.9 °C 38.7 °F /  3.7 °C 30.06 in /  1017.8 hPa Calm     86 % 0.00 in /  0 mm
00:20 42.1 °F /  5.6 °C 38.2 °F /  3.4 °C 30.06 in /  1017.8 hPa Calm     86 % 0.00 in /  0 mm
00:25 42.1 °F /  5.6 °C 38.5 °F /  3.6 °C 30.05 in /  1017.5 hPa Calm     87 % 0.00 in /  0 mm
00:30 42.3 °F /  5.7 °C 38.7 °F /  3.7 °C 30.05 in /  1017.5 hPa Calm     87 % 0.00 in /  0 mm
00:33 42.4 °F /  5.8 °C 38.8 °F /  3.8 °C 30.05 in /  1017.5 hPa Calm     87 % 0.00 in /  0 mm
00:35 42.5 °F /  5.8 °C 38.9 °F /  3.8 °C 30.05 in /  1017.5 hPa Calm     87 % 0.00 in /  0 mm
00:40 42.7 °F /  5.9 °C 38.8 °F /  3.8 °C 30.05 in /  1017.5 hPa Calm     86 % 0.00 in /  0 mm
00:41 42.7 °F /  5.9 °C 38.8 °F /  3.8 °C 30.05 in /  1017.5 hPa Calm     86 % 0.00 in /  0 mm
00:46 42.4 °F /  5.8 °C 38.2 °F /  3.4 °C 30.05 in /  1017.5 hPa Calm     85 % 0.00 in /  0 mm
00:51 42.2 °F /  5.7 °C 38.3 °F /  3.5 °C 30.05 in /  1017.5 hPa Calm     86 % 0.00 in /  0 mm
00:56 42.2 °F /  5.7 °C 38.3 °F /  3.5 °C 30.05 in /  1017.5 hPa Calm     86 % 0.00 in /  0 mm
01:01 42.0 °F /  5.6 °C 38.1 °F /  3.4 °C 30.05 in /  1017.5 hPa Calm     86 % 0.00 in /  0 mm
01:06 41.7 °F /  5.4 °C 37.8 °F /  3.2 °C 30.05 in /  1017.5 hPa Calm     86 % 0.00 in /  0 mm
01:11 41.6 °F /  5.3 °C 38.0 °F /  3.3 °C 30.05 in /  1017.5 hPa Calm     87 % 0.00 in /  0 mm
01:12 41.6 °F /  5.3 °C 38.0 °F /  3.3 °C 30.05 in /  1017.5 hPa Calm     87 % 0.00 in /  0 mm
01:17 41.7 °F /  5.4 °C 38.1 °F /  3.4 °C 30.05 in /  1017.5 hPa Calm     87 % 0.00 in /  0 mm
01:18 41.7 °F /  5.4 °C 38.1 °F /  3.4 °C 30.05 in /  1017.5 hPa Calm     87 % 0.00 in /  0 mm
01:19 41.7 °F /  5.4 °C 38.1 °F /  3.4 °C 30.05 in /  1017.5 hPa Calm     87 % 0.00 in /  0 mm
01:24 41.6 °F /  5.3 °C 38.0 °F /  3.3 °C 30.05 in /  1017.5 hPa Calm     87 % 0.00 in /  0 mm
01:27 41.5 °F /  5.3 °C 37.9 °F /  3.3 °C 30.05 in /  1017.5 hPa Calm     87 % 0.00 in /  0 mm
01:32 41.4 °F /  5.2 °C 37.8 °F /  3.2 °C 30.05 in /  1017.5 hPa Calm     87 % 0.00 in /  0 mm
01:33 41.4 °F /  5.2 °C 37.8 °F /  3.2 °C 30.06 in /  1017.8 hPa Calm     87 % 0.00 in /  0 mm
01:39 41.2 °F /  5.1 °C 37.6 °F /  3.1 °C 30.06 in /  1017.8 hPa Calm     87 % 0.00 in /  0 mm
01:40 41.2 °F /  5.1 °C 37.6 °F /  3.1 °C 30.06 in /  1017.8 hPa Calm     87 % 0.00 in /  0 mm
01:45 41.1 °F /  5.1 °C 37.8 °F /  3.2 °C 30.06 in /  1017.8 hPa Calm     88 % 0.00 in /  0 mm
01:46 41.1 °F /  5.1 °C 37.8 °F /  3.2 °C 30.06 in /  1017.8 hPa Calm     88 % 0.00 in /  0 mm
01:51 40.9 °F /  4.9 °C 37.6 °F /  3.1 °C 30.06 in /  1017.8 hPa Calm     88 % 0.00 in /  0 mm
01:52 40.8 °F /  4.9 °C 37.5 °F /  3.1 °C 30.06 in /  1017.8 hPa Calm     88 % 0.00 in /  0 mm
01:55 40.7 °F /  4.8 °C 37.4 °F /  3 °C 30.06 in /  1017.8 hPa Calm     88 % 0.00 in /  0 mm
01:59 40.6 °F /  4.8 °C 37.3 °F /  2.9 °C 30.06 in /  1017.8 hPa Calm     88 % 0.00 in /  0 mm
02:04 40.5 °F /  4.7 °C 37.5 °F /  3.1 °C 30.06 in /  1017.8 hPa Calm     89 % 0.00 in /  0 mm
02:05 40.5 °F /  4.7 °C 37.5 °F /  3.1 °C 30.06 in /  1017.8 hPa Calm     89 % 0.00 in /  0 mm
02:10 40.4 °F /  4.7 °C 37.4 °F /  3 °C 30.06 in /  1017.8 hPa Calm     89 % 0.00 in /  0 mm
02:11 40.4 °F /  4.7 °C 37.4 °F /  3 °C 30.06 in /  1017.8 hPa Calm     89 % 0.00 in /  0 mm
02:16 40.3 °F /  4.6 °C 37.3 °F /  2.9 °C 30.07 in /  1018.2 hPa Calm     89 % 0.00 in /  0 mm
02:19 40.1 °F /  4.5 °C 37.1 °F /  2.8 °C 30.07 in /  1018.2 hPa West 1.2 mph /  1.9 km/h 1.2 mph /  1.9 km/h 89 % 0.00 in /  0 mm
02:24 39.7 °F /  4.3 °C 36.7 °F /  2.6 °C 30.07 in /  1018.2 hPa West 1.2 mph /  1.9 km/h   89 % 0.00 in /  0 mm
02:25 39.6 °F /  4.2 °C 36.6 °F /  2.6 °C 30.07 in /  1018.2 hPa West 1.2 mph /  1.9 km/h   89 % 0.00 in /  0 mm
02:30 39.3 °F /  4.1 °C 36.3 °F /  2.4 °C 30.07 in /  1018.2 hPa Calm     89 % 0.00 in /  0 mm
02:31 39.3 °F /  4.1 °C 36.3 °F /  2.4 °C 30.07 in /  1018.2 hPa Calm     89 % 0.00 in /  0 mm
02:36 39.1 °F /  3.9 °C 36.4 °F /  2.4 °C 30.07 in /  1018.2 hPa Calm     90 % 0.00 in /  0 mm
02:37 39.2 °F /  4 °C 36.5 °F /  2.5 °C 30.07 in /  1018.2 hPa Calm     90 % 0.00 in /  0 mm
02:42 39.2 °F /  4 °C 36.5 °F /  2.5 °C 30.07 in /  1018.2 hPa Calm     90 % 0.00 in /  0 mm
02:45 39.2 °F /  4 °C 36.8 °F /  2.7 °C 30.07 in /  1018.2 hPa Calm     91 % 0.00 in /  0 mm
02:47 39.2 °F /  4 °C 36.8 °F /  2.7 °C 30.07 in /  1018.2 hPa Calm     91 % 0.00 in /  0 mm
02:52 39.3 °F /  4.1 °C 36.9 °F /  2.7 °C 30.07 in /  1018.2 hPa Calm     91 % 0.00 in /  0 mm
02:53 39.3 °F /  4.1 °C 36.9 °F /  2.7 °C 30.07 in /  1018.2 hPa Calm     91 % 0.00 in /  0 mm
02:58 39.6 °F /  4.2 °C 37.2 °F /  2.9 °C 30.06 in /  1017.8 hPa Calm     91 % 0.00 in /  0 mm
03:03 39.8 °F /  4.3 °C 37.4 °F /  3 °C 30.06 in /  1017.8 hPa Calm     91 % 0.00 in /  0 mm
03:08 39.9 °F /  4.4 °C 37.5 °F /  3.1 °C 30.06 in /  1017.8 hPa Calm     91 % 0.00 in /  0 mm
03:09 39.9 °F /  4.4 °C 37.5 °F /  3.1 °C 30.06 in /  1017.8 hPa Calm     91 % 0.00 in /  0 mm
03:14 40.0 °F /  4.4 °C 37.3 °F /  2.9 °C 30.06 in /  1017.8 hPa Calm     90 % 0.00 in /  0 mm
03:15 40.1 °F /  4.5 °C 37.4 °F /  3 °C 30.06 in /  1017.8 hPa Calm     90 % 0.00 in /  0 mm
03:20 40.2 °F /  4.6 °C 37.5 °F /  3.1 °C 30.06 in /  1017.8 hPa Calm     90 % 0.00 in /  0 mm
03:25 40.4 °F /  4.7 °C 37.7 °F /  3.2 °C 30.06 in /  1017.8 hPa Calm     90 % 0.00 in /  0 mm
03:26 40.4 °F /  4.7 °C 37.7 °F /  3.2 °C 30.06 in /  1017.8 hPa Calm     90 % 0.00 in /  0 mm
03:31 40.6 °F /  4.8 °C 37.9 °F /  3.3 °C 30.05 in /  1017.5 hPa Calm     90 % 0.00 in /  0 mm
03:32 40.6 °F /  4.8 °C 37.9 °F /  3.3 °C 30.05 in /  1017.5 hPa Calm     90 % 0.00 in /  0 mm
03:36 40.7 °F /  4.8 °C 38.0 °F /  3.3 °C 30.06 in /  1017.8 hPa Calm     90 % 0.00 in /  0 mm
03:37 40.7 °F /  4.8 °C 38.0 °F /  3.3 °C 30.06 in /  1017.8 hPa Calm     90 % 0.00 in /  0 mm
03:42 40.6 °F /  4.8 °C 37.6 °F /  3.1 °C 30.05 in /  1017.5 hPa Calm     89 % 0.00 in /  0 mm
03:43 40.5 °F /  4.7 °C 37.5 °F /  3.1 °C 30.05 in /  1017.5 hPa Calm     89 % 0.00 in /  0 mm
03:48 40.3 °F /  4.6 °C 37.3 °F /  2.9 °C 30.05 in /  1017.5 hPa Calm     89 % 0.00 in /  0 mm
03:53 40.1 °F /  4.5 °C 37.1 °F /  2.8 °C 30.05 in /  1017.5 hPa Calm     89 % 0.00 in /  0 mm
03:54 40.1 °F /  4.5 °C 37.1 °F /  2.8 °C 30.05 in /  1017.5 hPa Calm     89 % 0.00 in /  0 mm
03:59 40.0 °F /  4.4 °C 37.3 °F /  2.9 °C 30.06 in /  1017.8 hPa Calm     90 % 0.00 in /  0 mm
04:02 39.9 °F /  4.4 °C 36.9 °F /  2.7 °C 30.06 in /  1017.8 hPa Calm     89 % 0.00 in /  0 mm
04:07 39.6 °F /  4.2 °C 36.9 °F /  2.7 °C 30.06 in /  1017.8 hPa Calm     90 % 0.00 in /  0 mm
04:12 39.6 °F /  4.2 °C 37.2 °F /  2.9 °C 30.06 in /  1017.8 hPa Calm     91 % 0.00 in /  0 mm
04:13 39.6 °F /  4.2 °C 37.2 °F /  2.9 °C 30.06 in /  1017.8 hPa Calm     91 % 0.00 in /  0 mm
04:18 39.7 °F /  4.3 °C 37.3 °F /  2.9 °C 30.06 in /  1017.8 hPa Calm     91 % 0.00 in /  0 mm
04:21 39.7 °F /  4.3 °C 37.3 °F /  2.9 °C 30.06 in /  1017.8 hPa Calm     91 % 0.00 in /  0 mm
04:23 39.6 °F /  4.2 °C 37.2 °F /  2.9 °C 30.06 in /  1017.8 hPa Calm     91 % 0.00 in /  0 mm
04:26 39.7 °F /  4.3 °C 37.3 °F /  2.9 °C 30.06 in /  1017.8 hPa Calm     91 % 0.00 in /  0 mm
04:29 39.7 °F /  4.3 °C 37.6 °F /  3.1 °C 30.06 in /  1017.8 hPa Calm     92 % 0.00 in /  0 mm
04:32 39.8 °F /  4.3 °C 37.7 °F /  3.2 °C 30.06 in /  1017.8 hPa Calm     92 % 0.00 in /  0 mm
04:37 39.9 °F /  4.4 °C 37.8 °F /  3.2 °C 30.06 in /  1017.8 hPa Calm     92 % 0.00 in /  0 mm
04:38 39.9 °F /  4.4 °C 37.8 °F /  3.2 °C 30.06 in /  1017.8 hPa Calm     92 % 0.00 in /  0 mm
04:43 40.0 °F /  4.4 °C 37.6 °F /  3.1 °C 30.06 in /  1017.8 hPa Calm     91 % 0.00 in /  0 mm
04:44 40.0 °F /  4.4 °C 37.6 °F /  3.1 °C 30.06 in /  1017.8 hPa Calm     91 % 0.00 in /  0 mm
04:49 40.0 °F /  4.4 °C 37.6 °F /  3.1 °C 30.06 in /  1017.8 hPa Calm     91 % 0.00 in /  0 mm
04:51 40.0 °F /  4.4 °C 37.6 °F /  3.1 °C 30.06 in /  1017.8 hPa Calm     91 % 0.00 in /  0 mm
04:55 40.0 °F /  4.4 °C 37.6 °F /  3.1 °C 30.06 in /  1017.8 hPa Calm     91 % 0.00 in /  0 mm
04:56 40.0 °F /  4.4 °C 37.6 °F /  3.1 °C 30.06 in /  1017.8 hPa Calm     91 % 0.00 in /  0 mm
05:01 39.9 °F /  4.4 °C 37.2 °F /  2.9 °C 30.07 in /  1018.2 hPa Calm     90 % 0.00 in /  0 mm
05:05 39.9 °F /  4.4 °C 37.5 °F /  3.1 °C 30.07 in /  1018.2 hPa Calm     91 % 0.00 in /  0 mm
05:09 39.9 °F /  4.4 °C 37.5 °F /  3.1 °C 30.07 in /  1018.2 hPa Calm     91 % 0.00 in /  0 mm
05:11 40.0 °F /  4.4 °C 37.6 °F /  3.1 °C 30.07 in /  1018.2 hPa Calm     91 % 0.00 in /  0 mm
05:16 40.3 °F /  4.6 °C 37.9 °F /  3.3 °C 30.07 in /  1018.2 hPa Calm     91 % 0.00 in /  0 mm
05:17 40.3 °F /  4.6 °C 37.9 °F /  3.3 °C 30.07 in /  1018.2 hPa Calm     91 % 0.00 in /  0 mm
05:22 40.4 °F /  4.7 °C 38.0 °F /  3.3 °C 30.08 in /  1018.5 hPa Calm     91 % 0.00 in /  0 mm
05:24 40.4 °F /  4.7 °C 38.0 °F /  3.3 °C 30.08 in /  1018.5 hPa Calm     91 % 0.00 in /  0 mm
05:27 40.3 °F /  4.6 °C 37.9 °F /  3.3 °C 30.08 in /  1018.5 hPa Calm     91 % 0.00 in /  0 mm
05:30 40.3 °F /  4.6 °C 37.9 °F /  3.3 °C 30.08 in /  1018.5 hPa Calm     91 % 0.00 in /  0 mm
05:35 40.3 °F /  4.6 °C 37.9 °F /  3.3 °C 30.08 in /  1018.5 hPa Calm     91 % 0.00 in /  0 mm
05:40 40.2 °F /  4.6 °C 37.8 °F /  3.2 °C 30.08 in /  1018.5 hPa Calm     91 % 0.00 in /  0 mm
05:42 40.2 °F /  4.6 °C 37.5 °F /  3.1 °C 30.08 in /  1018.5 hPa Calm     90 % 0.00 in /  0 mm
05:43 40.2 °F /  4.6 °C 37.5 °F /  3.1 °C 30.08 in /  1018.5 hPa Calm     90 % 0.00 in /  0 mm
05:48 40.1 °F /  4.5 °C 37.4 °F /  3 °C 30.07 in /  1018.2 hPa Calm     90 % 0.00 in /  0 mm
05:52 40.1 °F /  4.5 °C 37.7 °F /  3.2 °C 30.08 in /  1018.5 hPa Calm     91 % 0.00 in /  0 mm
05:57 40.1 °F /  4.5 °C 37.4 °F /  3 °C 30.08 in /  1018.5 hPa Calm     90 % 0.00 in /  0 mm
05:58 40.1 °F /  4.5 °C 37.4 °F /  3 °C 30.08 in /  1018.5 hPa Calm     90 % 0.00 in /  0 mm
06:03 40.0 °F /  4.4 °C 37.3 °F /  2.9 °C 30.08 in /  1018.5 hPa Calm     90 % 0.00 in /  0 mm
06:04 39.9 °F /  4.4 °C 37.2 °F /  2.9 °C 30.08 in /  1018.5 hPa Calm     90 % 0.00 in /  0 mm
06:09 39.3 °F /  4.1 °C 36.3 °F /  2.4 °C 30.09 in /  1018.8 hPa Calm     89 % 0.00 in /  0 mm
06:14 38.5 °F /  3.6 °C 35.8 °F /  2.1 °C 30.10 in /  1019.2 hPa Calm     90 % 0.00 in /  0 mm
06:19 38.0 °F /  3.3 °C 35.3 °F /  1.8 °C 30.10 in /  1019.2 hPa Calm     90 % 0.00 in /  0 mm
06:24 37.9 °F /  3.3 °C 35.5 °F /  1.9 °C 30.10 in /  1019.2 hPa Calm     91 % 0.00 in /  0 mm
06:28 37.7 °F /  3.2 °C 35.3 °F /  1.8 °C 30.10 in /  1019.2 hPa Calm     91 % 0.00 in /  0 mm
06:33 37.8 °F /  3.2 °C 35.7 °F /  2.1 °C 30.10 in /  1019.2 hPa Calm     92 % 0.00 in /  0 mm
06:34 37.8 °F /  3.2 °C 35.7 °F /  2.1 °C 30.10 in /  1019.2 hPa Calm     92 % 0.00 in /  0 mm
06:35 37.9 °F /  3.3 °C 35.8 °F /  2.1 °C 30.10 in /  1019.2 hPa Calm     92 % 0.00 in /  0 mm
06:40 37.9 °F /  3.3 °C 35.8 °F /  2.1 °C 30.10 in /  1019.2 hPa Calm     92 % 0.00 in /  0 mm
06:43 38.0 °F /  3.3 °C 36.2 °F /  2.3 °C 30.10 in /  1019.2 hPa Calm     93 % 0.00 in /  0 mm
06:46 38.1 °F /  3.4 °C 36.3 °F /  2.4 °C 30.10 in /  1019.2 hPa Calm     93 % 0.00 in /  0 mm
06:49 38.2 °F /  3.4 °C 36.4 °F /  2.4 °C 30.10 in /  1019.2 hPa Calm     93 % 0.00 in /  0 mm
06:53 38.4 °F /  3.6 °C 36.3 °F /  2.4 °C 30.10 in /  1019.2 hPa Calm     92 % 0.00 in /  0 mm
06:56 38.4 °F /  3.6 °C 36.3 °F /  2.4 °C 30.10 in /  1019.2 hPa Calm     92 % 0.00 in /  0 mm
06:58 38.5 °F /  3.6 °C 36.4 °F /  2.4 °C 30.10 in /  1019.2 hPa Calm     92 % 0.00 in /  0 mm
07:03 38.6 °F /  3.7 °C 36.2 °F /  2.3 °C 30.10 in /  1019.2 hPa Calm     91 % 0.00 in /  0 mm
07:05 38.5 °F /  3.6 °C 36.1 °F /  2.3 °C 30.10 in /  1019.2 hPa Calm     91 % 0.00 in /  0 mm
07:09 38.4 °F /  3.6 °C 36.0 °F /  2.2 °C 30.10 in /  1019.2 hPa West 1.0 mph /  1.6 km/h   91 % 0.00 in /  0 mm
07:14 38.4 °F /  3.6 °C 36.0 °F /  2.2 °C 30.10 in /  1019.2 hPa West 1.2 mph /  1.9 km/h   91 % 0.00 in /  0 mm
07:16 38.4 °F /  3.6 °C 36.0 °F /  2.2 °C 30.10 in /  1019.2 hPa Calm     91 % 0.00 in /  0 mm
07:20 38.5 °F /  3.6 °C 36.1 °F /  2.3 °C 30.10 in /  1019.2 hPa Calm     91 % 0.00 in /  0 mm
07:25 38.6 °F /  3.7 °C 35.9 °F /  2.2 °C 30.10 in /  1019.2 hPa Calm     90 % 0.00 in /  0 mm
07:26 38.6 °F /  3.7 °C 35.9 °F /  2.2 °C 30.10 in /  1019.2 hPa Calm     90 % 0.00 in /  0 mm
07:31 38.6 °F /  3.7 °C 35.9 °F /  2.2 °C 30.10 in /  1019.2 hPa Calm     90 % 0.00 in /  0 mm
07:34 38.5 °F /  3.6 °C 35.8 °F /  2.1 °C 30.10 in /  1019.2 hPa Calm     90 % 0.00 in /  0 mm
07:36 38.3 °F /  3.5 °C 35.6 °F /  2 °C 30.10 in /  1019.2 hPa Calm     90 % 0.00 in /  0 mm
07:39 38.2 °F /  3.4 °C 35.5 °F /  1.9 °C 30.10 in /  1019.2 hPa Calm     90 % 0.00 in /  0 mm
07:44 38.1 °F /  3.4 °C 35.4 °F /  1.9 °C 30.11 in /  1019.5 hPa Calm     90 % 0.00 in /  0 mm
07:45 38.1 °F /  3.4 °C 35.4 °F /  1.9 °C 30.11 in /  1019.5 hPa Calm     90 % 0.00 in /  0 mm
07:46 38.0 °F /  3.3 °C 35.3 °F /  1.8 °C 30.11 in /  1019.5 hPa Calm     90 % 0.00 in /  0 mm
07:51 38.0 °F /  3.3 °C 35.3 °F /  1.8 °C 30.11 in /  1019.5 hPa Calm     90 % 0.00 in /  0 mm
07:53 38.0 °F /  3.3 °C 35.3 °F /  1.8 °C 30.11 in /  1019.5 hPa Calm     90 % 0.00 in /  0 mm
07:58 38.0 °F /  3.3 °C 35.6 °F /  2 °C 30.11 in /  1019.5 hPa Calm     91 % 0.00 in /  0 mm
07:59 38.0 °F /  3.3 °C 35.6 °F /  2 °C 30.12 in /  1019.9 hPa Calm     91 % 0.00 in /  0 mm
08:04 38.4 °F /  3.6 °C 36.3 °F /  2.4 °C 30.11 in /  1019.5 hPa Calm     92 % 0.00 in /  0 mm
08:06 38.6 °F /  3.7 °C 36.5 °F /  2.5 °C 30.11 in /  1019.5 hPa Calm     92 % 0.00 in /  0 mm
08:10 39.5 °F /  4.2 °C 37.4 °F /  3 °C 30.11 in /  1019.5 hPa Calm     92 % 0.00 in /  0 mm
08:13 40.5 °F /  4.7 °C 37.8 °F /  3.2 °C 30.12 in /  1019.9 hPa Calm     90 % 0.00 in /  0 mm
08:18 41.8 °F /  5.4 °C 38.5 °F /  3.6 °C 30.12 in /  1019.9 hPa East 1.2 mph /  1.9 km/h 1.2 mph /  1.9 km/h 88 % 0.00 in /  0 mm
08:19 41.8 °F /  5.4 °C 38.5 °F /  3.6 °C 30.12 in /  1019.9 hPa East 1.2 mph /  1.9 km/h 1.2 mph /  1.9 km/h 88 % 0.00 in /  0 mm
08:24 42.7 °F /  5.9 °C 39.1 °F /  3.9 °C 30.11 in /  1019.5 hPa Calm     87 % 0.00 in /  0 mm
08:25 43.0 °F /  6.1 °C 39.4 °F /  4.1 °C 30.11 in /  1019.5 hPa Calm   0.1 mph /  0.2 km/h 87 % 0.00 in /  0 mm
08:27 43.2 °F /  6.2 °C 39.3 °F /  4.1 °C 30.12 in /  1019.9 hPa ESE 1.2 mph /  1.9 km/h 1.2 mph /  1.9 km/h 86 % 0.00 in /  0 mm
08:30 43.3 °F /  6.3 °C 39.1 °F /  3.9 °C 30.12 in /  1019.9 hPa ESE 1.2 mph /  1.9 km/h 1.2 mph /  1.9 km/h 85 % 0.00 in /  0 mm
08:32 43.4 °F /  6.3 °C 39.2 °F /  4 °C 30.11 in /  1019.5 hPa ESE 1.2 mph /  1.9 km/h 1.2 mph /  1.9 km/h 85 % 0.00 in /  0 mm
08:37 44.1 °F /  6.7 °C 39.9 °F /  4.4 °C 30.11 in /  1019.5 hPa ESE 1.2 mph /  1.9 km/h   85 % 0.00 in /  0 mm
08:40 44.7 °F /  7.1 °C 40.2 °F /  4.6 °C 30.11 in /  1019.5 hPa ESE 1.2 mph /  1.9 km/h 1.2 mph /  1.9 km/h 84 % 0.00 in /  0 mm
08:42 45.1 °F /  7.3 °C 40.2 °F /  4.6 °C 30.12 in /  1019.9 hPa Calm     83 % 0.00 in /  0 mm
08:47 46.5 °F /  8.1 °C 41.3 °F /  5.2 °C 30.12 in /  1019.9 hPa Calm     82 % 0.00 in /  0 mm
08:52 47.9 °F /  8.8 °C 42.0 °F /  5.6 °C 30.12 in /  1019.9 hPa SE 1.2 mph /  1.9 km/h   80 % 0.00 in /  0 mm
08:54 48.4 °F /  9.1 °C 41.9 °F /  5.5 °C 30.12 in /  1019.9 hPa SE 2.3 mph /  3.7 km/h 2.3 mph /  3.7 km/h 78 % 0.00 in /  0 mm
08:58 49.2 °F /  9.6 °C 42.3 °F /  5.7 °C 30.12 in /  1019.9 hPa ESE 1.2 mph /  1.9 km/h 1.2 mph /  1.9 km/h 77 % 0.00 in /  0 mm
09:00 49.5 °F /  9.7 °C 41.9 °F /  5.5 °C 30.12 in /  1019.9 hPa South 1.2 mph /  1.9 km/h 1.2 mph /  1.9 km/h 75 % 0.00 in /  0 mm
09:05 50.2 °F /  10.1 °C 41.9 °F /  5.5 °C 30.13 in /  1020.2 hPa SSE 2.3 mph /  3.7 km/h 2.3 mph /  3.7 km/h 73 % 0.00 in /  0 mm
09:07 50.4 °F /  10.2 °C 41.7 °F /  5.4 °C 30.12 in /  1019.9 hPa SSE 2.3 mph /  3.7 km/h 2.3 mph /  3.7 km/h 72 % 0.00 in /  0 mm
09:12 51.1 °F /  10.6 °C 42.0 °F /  5.6 °C 30.12 in /  1019.9 hPa SE 2.3 mph /  3.7 km/h 2.3 mph /  3.7 km/h 71 % 0.00 in /  0 mm
09:13 51.2 °F /  10.7 °C 42.5 °F /  5.8 °C 30.13 in /  1020.2 hPa SE 2.3 mph /  3.7 km/h 2.3 mph /  3.7 km/h 72 % 0.00 in /  0 mm
09:14 51.3 °F /  10.7 °C 42.2 °F /  5.7 °C 30.13 in /  1020.2 hPa SSE 1.2 mph /  1.9 km/h   71 % 0.00 in /  0 mm
09:19 51.8 °F /  11 °C 42.3 °F /  5.7 °C 30.13 in /  1020.2 hPa East 1.2 mph /  1.9 km/h   70 % 0.00 in /  0 mm
09:20 52.0 °F /  11.1 °C 42.5 °F /  5.8 °C 30.13 in /  1020.2 hPa SE 1.2 mph /  1.9 km/h 1.2 mph /  1.9 km/h 70 % 0.00 in /  0 mm
09:22 52.3 °F /  11.3 °C 42.8 °F /  6 °C 30.13 in /  1020.2 hPa South 1.2 mph /  1.9 km/h 1.2 mph /  1.9 km/h 70 % 0.00 in /  0 mm
09:27 52.7 °F /  11.5 °C 42.4 °F /  5.8 °C 30.13 in /  1020.2 hPa Calm     68 % 0.00 in /  0 mm
09:31 53.1 °F /  11.7 °C 42.4 °F /  5.8 °C 30.13 in /  1020.2 hPa SE 1.2 mph /  1.9 km/h   67 % 0.00 in /  0 mm
09:33 53.3 °F /  11.8 °C 42.2 °F /  5.7 °C 30.13 in /  1020.2 hPa Calm     66 % 0.00 in /  0 mm
09:36 53.8 °F /  12.1 °C 42.7 °F /  5.9 °C 30.13 in /  1020.2 hPa Calm     66 % 0.00 in /  0 mm
09:40 53.7 °F /  12.1 °C 41.8 °F /  5.4 °C 30.13 in /  1020.2 hPa ENE 1.2 mph /  1.9 km/h   64 % 0.00 in /  0 mm
09:44 54.1 °F /  12.3 °C 42.6 °F /  5.9 °C 30.13 in /  1020.2 hPa SSE 1.2 mph /  1.9 km/h   65 % 0.00 in /  0 mm
09:49 54.7 °F /  12.6 °C 42.3 °F /  5.7 °C 30.13 in /  1020.2 hPa Calm   0.1 mph /  0.2 km/h 63 % 0.00 in /  0 mm
09:50 54.8 °F /  12.7 °C 42.4 °F /  5.8 °C 30.13 in /  1020.2 hPa NW 1.2 mph /  1.9 km/h 1.2 mph /  1.9 km/h 63 % 0.00 in /  0 mm
09:55 54.1 °F /  12.3 °C 41.4 °F /  5.2 °C 30.13 in /  1020.2 hPa Calm     62 % 0.00 in /  0 mm
09:58 54.0 °F /  12.2 °C 41.3 °F /  5.2 °C 30.13 in /  1020.2 hPa Calm     62 % 0.00 in /  0 mm
10:01 53.9 °F /  12.2 °C 41.2 °F /  5.1 °C 30.13 in /  1020.2 hPa Calm     62 % 0.00 in /  0 mm
10:03 54.2 °F /  12.3 °C 41.5 °F /  5.3 °C 30.13 in /  1020.2 hPa Calm     62 % 0.00 in /  0 mm
10:06 54.7 °F /  12.6 °C 42.3 °F /  5.7 °C 30.13 in /  1020.2 hPa Calm     63 % 0.00 in /  0 mm
10:08 55.4 °F /  13 °C 42.6 °F /  5.9 °C 30.13 in /  1020.2 hPa East 1.2 mph /  1.9 km/h   62 % 0.00 in /  0 mm
10:13 56.0 °F /  13.3 °C 42.3 °F /  5.7 °C 30.13 in /  1020.2 hPa East 1.2 mph /  1.9 km/h   60 % 0.00 in /  0 mm
10:14 56.1 °F /  13.4 °C 42.8 °F /  6 °C 30.13 in /  1020.2 hPa SSE 1.2 mph /  1.9 km/h 1.2 mph /  1.9 km/h 61 % 0.00 in /  0 mm
10:18 56.8 °F /  13.8 °C 42.6 °F /  5.9 °C 30.13 in /  1020.2 hPa Calm     59 % 0.00 in /  0 mm
10:20 57.0 °F /  13.9 °C 42.4 °F /  5.8 °C 30.13 in /  1020.2 hPa Calm     58 % 0.00 in /  0 mm
10:25 57.5 °F /  14.2 °C 43.3 °F /  6.3 °C 30.13 in /  1020.2 hPa SSE 1.2 mph /  1.9 km/h 1.2 mph /  1.9 km/h 59 % 0.00 in /  0 mm
10:26 57.8 °F /  14.3 °C 43.6 °F /  6.4 °C 30.13 in /  1020.2 hPa Calm     59 % 0.00 in /  0 mm
10:31 58.4 °F /  14.7 °C 42.8 °F /  6 °C 30.13 in /  1020.2 hPa Calm     56 % 0.00 in /  0 mm
10:33 58.7 °F /  14.8 °C 43.5 °F /  6.4 °C 30.13 in /  1020.2 hPa Calm     57 % 0.00 in /  0 mm
10:35 58.9 °F /  14.9 °C 42.8 °F /  6 °C 30.13 in /  1020.2 hPa Calm     55 % 0.00 in /  0 mm
10:38 59.1 °F /  15.1 °C 43.4 °F /  6.3 °C 30.13 in /  1020.2 hPa Calm     56 % 0.00 in /  0 mm
10:41 59.1 °F /  15.1 °C 42.9 °F /  6.1 °C 30.13 in /  1020.2 hPa North 1.2 mph /  1.9 km/h 1.2 mph /  1.9 km/h 55 % 0.00 in /  0 mm
10:44 58.8 °F /  14.9 °C 42.7 °F /  5.9 °C 30.13 in /  1020.2 hPa NW 1.2 mph /  1.9 km/h 1.2 mph /  1.9 km/h 55 % 0.00 in /  0 mm
10:49 58.3 °F /  14.6 °C 42.7 °F /  5.9 °C 30.13 in /  1020.2 hPa WNW 2.3 mph /  3.7 km/h 2.3 mph /  3.7 km/h 56 % 0.00 in /  0 mm
10:54 58.1 °F /  14.5 °C 42.9 °F /  6.1 °C 30.12 in /  1019.9 hPa Calm     57 % 0.00 in /  0 mm
10:57 58.6 °F /  14.8 °C 42.9 °F /  6.1 °C 30.12 in /  1019.9 hPa Calm     56 % 0.00 in /  0 mm
11:02 59.3 °F /  15.2 °C 44.5 °F /  6.9 °C 30.11 in /  1019.5 hPa Calm   0.3 mph /  0.5 km/h 58 % 0.00 in /  0 mm
11:03 59.5 °F /  15.3 °C 44.2 °F /  6.8 °C 30.11 in /  1019.5 hPa SE 1.2 mph /  1.9 km/h   57 % 0.00 in /  0 mm
11:08 60.0 °F /  15.6 °C 42.8 °F /  6 °C 30.11 in /  1019.5 hPa Calm     53 % 0.00 in /  0 mm
11:10 60.1 °F /  15.6 °C 42.9 °F /  6.1 °C 30.11 in /  1019.5 hPa SSE 1.2 mph /  1.9 km/h 1.2 mph /  1.9 km/h 53 % 0.00 in /  0 mm
11:15 60.1 °F /  15.6 °C 42.4 °F /  5.8 °C 30.10 in /  1019.2 hPa West 2.3 mph /  3.7 km/h 2.3 mph /  3.7 km/h 52 % 0.00 in /  0 mm
11:17 60.1 °F /  15.6 °C 42.4 °F /  5.8 °C 30.10 in /  1019.2 hPa Calm     52 % 0.00 in /  0 mm
11:20 60.4 °F /  15.8 °C 43.2 °F /  6.2 °C 30.10 in /  1019.2 hPa Calm     53 % 0.00 in /  0 mm
11:23 60.7 °F /  15.9 °C 43.0 °F /  6.1 °C 30.10 in /  1019.2 hPa Calm     52 % 0.00 in /  0 mm
11:28 61.1 °F /  16.2 °C 43.3 °F /  6.3 °C 30.10 in /  1019.2 hPa Calm     52 % 0.00 in /  0 mm
11:33 62.0 °F /  16.7 °C 44.2 °F /  6.8 °C 30.10 in /  1019.2 hPa Calm     52 % 0.00 in /  0 mm
11:37 62.5 °F /  16.9 °C 43.6 °F /  6.4 °C 30.10 in /  1019.2 hPa Calm     50 % 0.00 in /  0 mm
11:38 62.6 °F /  17 °C 43.2 °F /  6.2 °C 30.09 in /  1018.8 hPa NNW 1.2 mph /  1.9 km/h   49 % 0.00 in /  0 mm
11:42 63.1 °F /  17.3 °C 43.6 °F /  6.4 °C 30.09 in /  1018.8 hPa Calm     49 % 0.00 in /  0 mm
11:47 63.7 °F /  17.6 °C 43.6 °F /  6.4 °C 30.09 in /  1018.8 hPa Calm     48 % 0.00 in /  0 mm
11:48 63.7 °F /  17.6 °C 43.1 °F /  6.2 °C 30.09 in /  1018.8 hPa NW 1.0 mph /  1.6 km/h 1.0 mph /  1.6 km/h 47 % 0.00 in /  0 mm
11:53 64.1 °F /  17.8 °C 42.9 °F /  6.1 °C 30.09 in /  1018.8 hPa Calm   0.8 mph /  1.3 km/h 46 % 0.00 in /  0 mm
11:54 64.2 °F /  17.9 °C 43.5 °F /  6.4 °C 30.09 in /  1018.8 hPa WNW 1.2 mph /  1.9 km/h 1.2 mph /  1.9 km/h 47 % 0.00 in /  0 mm
11:57 64.4 °F /  18 °C 43.7 °F /  6.5 °C 30.09 in /  1018.8 hPa NW 1.2 mph /  1.9 km/h 1.2 mph /  1.9 km/h 47 % 0.00 in /  0 mm
12:02 64.8 °F /  18.2 °C 43.5 °F /  6.4 °C 30.09 in /  1018.8 hPa Calm     46 % 0.00 in /  0 mm
12:03 65.0 °F /  18.3 °C 43.7 °F /  6.5 °C 30.09 in /  1018.8 hPa SSW 1.2 mph /  1.9 km/h   46 % 0.00 in /  0 mm
12:07 65.2 °F /  18.4 °C 43.3 °F /  6.3 °C 30.08 in /  1018.5 hPa Calm     45 % 0.00 in /  0 mm
12:09 65.3 °F /  18.5 °C 43.4 °F /  6.3 °C 30.08 in /  1018.5 hPa WNW 2.3 mph /  3.7 km/h 2.3 mph /  3.7 km/h 45 % 0.00 in /  0 mm
12:13 65.3 °F /  18.5 °C 42.8 °F /  6 °C 30.08 in /  1018.5 hPa North 1.2 mph /  1.9 km/h   44 % 0.00 in /  0 mm
12:39 66.2 °F /  19 °C 42.4 °F /  5.8 °C 30.07 in /  1018.2 hPa Calm     42 % 0.00 in /  0 mm
12:40 66.2 °F /  19 °C 43.6 °F /  6.4 °C 30.07 in /  1018.2 hPa Calm     44 % 0.00 in /  0 mm
12:45 66.0 °F /  18.9 °C 42.2 °F /  5.7 °C 30.06 in /  1017.8 hPa Calm     42 % 0.00 in /  0 mm
12:48 65.9 °F /  18.8 °C 42.1 °F /  5.6 °C 30.06 in /  1017.8 hPa Calm     42 % 0.00 in /  0 mm
12:51 65.8 °F /  18.8 °C 43.3 °F /  6.3 °C 30.06 in /  1017.8 hPa Calm     44 % 0.00 in /  0 mm
12:55 66.0 °F /  18.9 °C 42.9 °F /  6.1 °C 30.06 in /  1017.8 hPa Calm     43 % 0.00 in /  0 mm
12:58 66.0 °F /  18.9 °C 43.5 °F /  6.4 °C 30.06 in /  1017.8 hPa Calm     44 % 0.00 in /  0 mm
13:01 66.0 °F /  18.9 °C 42.2 °F /  5.7 °C 30.06 in /  1017.8 hPa Calm     42 % 0.00 in /  0 mm
13:06 66.1 °F /  18.9 °C 41.7 °F /  5.4 °C 30.06 in /  1017.8 hPa Calm   0.2 mph /  0.3 km/h 41 % 0.00 in /  0 mm
13:09 66.2 °F /  19 °C 42.4 °F /  5.8 °C 30.06 in /  1017.8 hPa Calm     42 % 0.00 in /  0 mm
13:14 66.2 °F /  19 °C 42.4 °F /  5.8 °C 30.06 in /  1017.8 hPa Calm     42 % 0.00 in /  0 mm
13:18 66.4 °F /  19.1 °C 42.6 °F /  5.9 °C 30.06 in /  1017.8 hPa Calm     42 % 0.00 in /  0 mm
13:23 66.2 °F /  19 °C 41.8 °F /  5.4 °C 30.06 in /  1017.8 hPa Calm     41 % 0.00 in /  0 mm
13:26 66.1 °F /  18.9 °C 42.3 °F /  5.7 °C 30.06 in /  1017.8 hPa Calm     42 % 0.00 in /  0 mm
13:31 66.0 °F /  18.9 °C 42.2 °F /  5.7 °C 30.06 in /  1017.8 hPa Calm     42 % 0.00 in /  0 mm
13:36 66.0 °F /  18.9 °C 42.9 °F /  6.1 °C 30.06 in /  1017.8 hPa Calm     43 % 0.00 in /  0 mm
13:39 66.0 °F /  18.9 °C 42.2 °F /  5.7 °C 30.06 in /  1017.8 hPa Calm     42 % 0.00 in /  0 mm
13:44 66.0 °F /  18.9 °C 42.9 °F /  6.1 °C 30.06 in /  1017.8 hPa Calm     43 % 0.00 in /  0 mm
13:47 66.0 °F /  18.9 °C 42.9 °F /  6.1 °C 30.06 in /  1017.8 hPa Calm   0.3 mph /  0.5 km/h 43 % 0.00 in /  0 mm
13:49 65.9 °F /  18.8 °C 43.4 °F /  6.3 °C 30.06 in /  1017.8 hPa Calm     44 % 0.00 in /  0 mm
13:53 65.8 °F /  18.8 °C 43.9 °F /  6.6 °C 30.06 in /  1017.8 hPa Calm     45 % 0.00 in /  0 mm
13:55 65.8 °F /  18.8 °C 42.1 °F /  5.6 °C 30.06 in /  1017.8 hPa Calm     42 % 0.00 in /  0 mm
13:58 65.8 °F /  18.8 °C 42.1 °F /  5.6 °C 30.06 in /  1017.8 hPa Calm     42 % 0.00 in /  0 mm
14:03 65.9 °F /  18.8 °C 42.1 °F /  5.6 °C 30.05 in /  1017.5 hPa WNW 1.2 mph /  1.9 km/h   42 % 0.00 in /  0 mm
14:04 65.9 °F /  18.8 °C 42.1 °F /  5.6 °C 30.06 in /  1017.8 hPa Calm     42 % 0.00 in /  0 mm
14:09 65.8 °F /  18.8 °C 42.7 °F /  5.9 °C 30.06 in /  1017.8 hPa Calm     43 % 0.00 in /  0 mm
14:14 65.6 °F /  18.7 °C 42.5 °F /  5.8 °C 30.05 in /  1017.5 hPa Calm     43 % 0.00 in /  0 mm
14:17 65.5 °F /  18.6 °C 42.4 °F /  5.8 °C 30.05 in /  1017.5 hPa Calm     43 % 0.00 in /  0 mm
14:22 65.5 °F /  18.6 °C 43.6 °F /  6.4 °C 30.05 in /  1017.5 hPa Calm     45 % 0.00 in /  0 mm
14:23 65.5 °F /  18.6 °C 43.0 °F /  6.1 °C 30.05 in /  1017.5 hPa Calm     44 % 0.00 in /  0 mm
14:28 65.8 °F /  18.8 °C 42.7 °F /  5.9 °C 30.05 in /  1017.5 hPa WSW 1.2 mph /  1.9 km/h 1.2 mph /  1.9 km/h 43 % 0.00 in /  0 mm
14:31 66.0 °F /  18.9 °C 42.9 °F /  6.1 °C 30.05 in /  1017.5 hPa Calm     43 % 0.00 in /  0 mm
14:32 66.0 °F /  18.9 °C 42.2 °F /  5.7 °C 30.05 in /  1017.5 hPa Calm     42 % 0.00 in /  0 mm
14:37 66.4 °F /  19.1 °C 42.0 °F /  5.6 °C 30.05 in /  1017.5 hPa North 2.3 mph /  3.7 km/h 2.3 mph /  3.7 km/h 41 % 0.00 in /  0 mm
14:41 66.6 °F /  19.2 °C 41.5 °F /  5.3 °C 30.05 in /  1017.5 hPa WNW 1.0 mph /  1.6 km/h 1.0 mph /  1.6 km/h 40 % 0.00 in /  0 mm
14:46 66.8 °F /  19.3 °C 41.0 °F /  5 °C 30.05 in /  1017.5 hPa NW 1.2 mph /  1.9 km/h 1.2 mph /  1.9 km/h 39 % 0.00 in /  0 mm
14:47 66.8 °F /  19.3 °C 41.7 °F /  5.4 °C 30.05 in /  1017.5 hPa Calm     40 % 0.00 in /  0 mm
14:52 67.0 °F /  19.4 °C 41.2 °F /  5.1 °C 30.05 in /  1017.5 hPa Calm     39 % 0.00 in /  0 mm
14:57 67.1 °F /  19.5 °C 40.6 °F /  4.8 °C 30.05 in /  1017.5 hPa NW 1.2 mph /  1.9 km/h 1.2 mph /  1.9 km/h 38 % 0.00 in /  0 mm
14:59 67.2 °F /  19.6 °C 41.4 °F /  5.2 °C 30.05 in /  1017.5 hPa Calm   0.4 mph /  0.6 km/h 39 % 0.00 in /  0 mm
15:04 67.3 °F /  19.6 °C 40.1 °F /  4.5 °C 30.05 in /  1017.5 hPa WNW 1.2 mph /  1.9 km/h   37 % 0.00 in /  0 mm
15:06 67.3 °F /  19.6 °C 40.8 °F /  4.9 °C 30.05 in /  1017.5 hPa WNW 1.2 mph /  1.9 km/h   38 % 0.00 in /  0 mm
15:11 67.3 °F /  19.6 °C 40.8 °F /  4.9 °C 30.04 in /  1017.2 hPa Calm     38 % 0.00 in /  0 mm
15:16 67.5 °F /  19.7 °C 40.3 °F /  4.6 °C 30.04 in /  1017.2 hPa WNW 1.2 mph /  1.9 km/h 1.2 mph /  1.9 km/h 37 % 0.00 in /  0 mm
15:17 67.5 °F /  19.7 °C 40.3 °F /  4.6 °C 30.04 in /  1017.2 hPa WNW 1.2 mph /  1.9 km/h   37 % 0.00 in /  0 mm
15:22 67.5 °F /  19.7 °C 40.3 °F /  4.6 °C 30.04 in /  1017.2 hPa Calm     37 % 0.00 in /  0 mm
15:24 67.5 °F /  19.7 °C 40.3 °F /  4.6 °C 30.04 in /  1017.2 hPa NNW 1.2 mph /  1.9 km/h 1.2 mph /  1.9 km/h 37 % 0.00 in /  0 mm
15:28 67.3 °F /  19.6 °C 40.1 °F /  4.5 °C 30.04 in /  1017.2 hPa Calm     37 % 0.00 in /  0 mm
15:30 67.2 °F /  19.6 °C 40.0 °F /  4.4 °C 30.04 in /  1017.2 hPa Calm     37 % 0.00 in /  0 mm
15:31 67.2 °F /  19.6 °C 40.0 °F /  4.4 °C 30.04 in /  1017.2 hPa Calm     37 % 0.00 in /  0 mm
15:35 67.2 °F /  19.6 °C 40.0 °F /  4.4 °C 30.04 in /  1017.2 hPa Calm     37 % 0.00 in /  0 mm
15:37 67.2 °F /  19.6 °C 40.0 °F /  4.4 °C 30.04 in /  1017.2 hPa Calm     37 % 0.00 in /  0 mm
15:42 67.2 °F /  19.6 °C 41.4 °F /  5.2 °C 30.04 in /  1017.2 hPa NW 1.2 mph /  1.9 km/h 1.2 mph /  1.9 km/h 39 % 0.00 in /  0 mm
15:46 67.2 °F /  19.6 °C 41.4 °F /  5.2 °C 30.04 in /  1017.2 hPa Calm   0.1 mph /  0.2 km/h 39 % 0.00 in /  0 mm
15:51 66.9 °F /  19.4 °C 41.8 °F /  5.4 °C 30.04 in /  1017.2 hPa WNW 1.2 mph /  1.9 km/h 1.2 mph /  1.9 km/h 40 % 0.00 in /  0 mm
15:54 66.8 °F /  19.3 °C 41.0 °F /  5 °C 30.04 in /  1017.2 hPa WNW 1.2 mph /  1.9 km/h   39 % 0.00 in /  0 mm
15:57 66.7 °F /  19.3 °C 41.6 °F /  5.3 °C 30.04 in /  1017.2 hPa Calm     40 % 0.00 in /  0 mm
15:59 66.6 °F /  19.2 °C 41.5 °F /  5.3 °C 30.04 in /  1017.2 hPa WNW 1.2 mph /  1.9 km/h   40 % 0.00 in /  0 mm
16:04 66.3 °F /  19.1 °C 41.9 °F /  5.5 °C 30.04 in /  1017.2 hPa Calm     41 % 0.00 in /  0 mm
16:09 66.0 °F /  18.9 °C 42.2 °F /  5.7 °C 30.04 in /  1017.2 hPa Calm     42 % 0.00 in /  0 mm
16:14 65.6 °F /  18.7 °C 41.9 °F /  5.5 °C 30.04 in /  1017.2 hPa Calm     42 % 0.00 in /  0 mm
16:15 65.4 °F /  18.6 °C 41.7 °F /  5.4 °C 30.05 in /  1017.5 hPa Calm     42 % 0.00 in /  0 mm
16:20 64.9 °F /  18.3 °C 41.9 °F /  5.5 °C 30.05 in /  1017.5 hPa Calm     43 % 0.00 in /  0 mm
16:21 64.8 °F /  18.2 °C 41.8 °F /  5.4 °C 30.05 in /  1017.5 hPa Calm     43 % 0.00 in /  0 mm
16:26 64.1 °F /  17.8 °C 41.7 °F /  5.4 °C 30.05 in /  1017.5 hPa Calm     44 % 0.00 in /  0 mm
16:29 63.7 °F /  17.6 °C 41.9 °F /  5.5 °C 30.05 in /  1017.5 hPa Calm     45 % 0.00 in /  0 mm
16:30 63.6 °F /  17.6 °C 41.9 °F /  5.5 °C 30.05 in /  1017.5 hPa Calm     45 % 0.00 in /  0 mm
16:35 62.9 °F /  17.2 °C 41.2 °F /  5.1 °C 30.05 in /  1017.5 hPa Calm     45 % 0.00 in /  0 mm
16:36 62.8 °F /  17.1 °C 41.7 °F /  5.4 °C 30.05 in /  1017.5 hPa Calm     46 % 0.00 in /  0 mm
16:41 62.0 °F /  16.7 °C 41.5 °F /  5.3 °C 30.05 in /  1017.5 hPa Calm     47 % 0.00 in /  0 mm
16:46 61.0 °F /  16.1 °C 41.7 °F /  5.4 °C 30.05 in /  1017.5 hPa Calm     49 % 0.00 in /  0 mm
16:47 60.8 °F /  16 °C 42.0 °F /  5.6 °C 30.05 in /  1017.5 hPa Calm     50 % 0.00 in /  0 mm
16:48 60.7 °F /  15.9 °C 41.9 °F /  5.5 °C 30.05 in /  1017.5 hPa Calm     50 % 0.00 in /  0 mm
16:53 59.9 °F /  15.5 °C 42.2 °F /  5.7 °C 30.06 in /  1017.8 hPa Calm     52 % 0.00 in /  0 mm
16:54 59.8 °F /  15.4 °C 42.6 °F /  5.9 °C 30.06 in /  1017.8 hPa Calm     53 % 0.00 in /  0 mm
16:58 59.3 °F /  15.2 °C 43.6 °F /  6.4 °C 30.06 in /  1017.8 hPa Calm     56 % 0.00 in /  0 mm
17:01 59.0 °F /  15 °C 43.3 °F /  6.3 °C 30.06 in /  1017.8 hPa Calm     56 % 0.00 in /  0 mm
17:06 58.2 °F /  14.6 °C 42.1 °F /  5.6 °C 30.06 in /  1017.8 hPa Calm     55 % 0.00 in /  0 mm
17:11 57.5 °F /  14.2 °C 42.4 °F /  5.8 °C 30.06 in /  1017.8 hPa Calm     57 % 0.00 in /  0 mm
17:14 57.1 °F /  13.9 °C 42.0 °F /  5.6 °C 30.07 in /  1018.2 hPa Calm     57 % 0.00 in /  0 mm
17:19 56.6 °F /  13.7 °C 42.0 °F /  5.6 °C 30.07 in /  1018.2 hPa Calm     58 % 0.00 in /  0 mm
17:22 56.2 °F /  13.4 °C 42.1 °F /  5.6 °C 30.07 in /  1018.2 hPa Calm     59 % 0.00 in /  0 mm
17:23 56.1 °F /  13.4 °C 42.0 °F /  5.6 °C 30.07 in /  1018.2 hPa Calm     59 % 0.00 in /  0 mm
17:28 55.5 °F /  13.1 °C 41.8 °F /  5.4 °C 30.07 in /  1018.2 hPa Calm     60 % 0.00 in /  0 mm
17:29 55.4 °F /  13 °C 42.2 °F /  5.7 °C 30.07 in /  1018.2 hPa Calm     61 % 0.00 in /  0 mm
17:34 54.8 °F /  12.7 °C 42.0 °F /  5.6 °C 30.08 in /  1018.5 hPa Calm     62 % 0.00 in /  0 mm
17:35 54.7 °F /  12.6 °C 41.9 °F /  5.5 °C 30.08 in /  1018.5 hPa Calm     62 % 0.00 in /  0 mm
17:36 54.5 °F /  12.5 °C 41.7 °F /  5.4 °C 30.08 in /  1018.5 hPa Calm     62 % 0.00 in /  0 mm
17:41 54.2 °F /  12.3 °C 41.9 °F /  5.5 °C 30.08 in /  1018.5 hPa Calm     63 % 0.00 in /  0 mm
17:45 53.9 °F /  12.2 °C 42.0 °F /  5.6 °C 30.08 in /  1018.5 hPa Calm     64 % 0.00 in /  0 mm
17:50 53.5 °F /  11.9 °C 42.0 °F /  5.6 °C 30.08 in /  1018.5 hPa Calm     65 % 0.00 in /  0 mm
17:54 53.3 °F /  11.8 °C 42.2 °F /  5.7 °C 30.09 in /  1018.8 hPa Calm     66 % 0.00 in /  0 mm
17:56 53.2 °F /  11.8 °C 42.1 °F /  5.6 °C 30.09 in /  1018.8 hPa Calm     66 % 0.00 in /  0 mm
18:01 52.9 °F /  11.6 °C 41.4 °F /  5.2 °C 30.09 in /  1018.8 hPa Calm     65 % 0.00 in /  0 mm
18:04 52.8 °F /  11.6 °C 41.7 °F /  5.4 °C 30.09 in /  1018.8 hPa Calm     66 % 0.00 in /  0 mm
18:06 52.6 °F /  11.4 °C 41.6 °F /  5.3 °C 30.09 in /  1018.8 hPa Calm     66 % 0.00 in /  0 mm
18:11 52.1 °F /  11.2 °C 41.5 °F /  5.3 °C 30.09 in /  1018.8 hPa Calm     67 % 0.00 in /  0 mm
18:14 51.9 °F /  11.1 °C 41.3 °F /  5.2 °C 30.09 in /  1018.8 hPa Calm     67 % 0.00 in /  0 mm
18:17 51.7 °F /  10.9 °C 41.5 °F /  5.3 °C 30.09 in /  1018.8 hPa Calm     68 % 0.00 in /  0 mm
18:20 51.5 °F /  10.8 °C 41.7 °F /  5.4 °C 30.09 in /  1018.8 hPa Calm     69 % 0.00 in /  0 mm
18:25 51.0 °F /  10.6 °C 41.6 °F /  5.3 °C 30.10 in /  1019.2 hPa Calm     70 % 0.00 in /  0 mm
18:26 50.9 °F /  10.5 °C 41.5 °F /  5.3 °C 30.10 in /  1019.2 hPa Calm     70 % 0.00 in /  0 mm
18:31 50.7 °F /  10.4 °C 41.6 °F /  5.3 °C 30.10 in /  1019.2 hPa Calm     71 % 0.00 in /  0 mm
18:36 50.6 °F /  10.3 °C 41.5 °F /  5.3 °C 30.10 in /  1019.2 hPa Calm     71 % 0.00 in /  0 mm
18:37 50.6 °F /  10.3 °C 41.5 °F /  5.3 °C 30.10 in /  1019.2 hPa Calm     71 % 0.00 in /  0 mm
18:42 50.4 °F /  10.2 °C 41.3 °F /  5.2 °C 30.10 in /  1019.2 hPa Calm     71 % 0.00 in /  0 mm
18:43 50.3 °F /  10.2 °C 41.6 °F /  5.3 °C 30.11 in /  1019.5 hPa Calm     72 % 0.00 in /  0 mm
18:46 50.1 °F /  10.1 °C 41.4 °F /  5.2 °C 30.11 in /  1019.5 hPa Calm     72 % 0.00 in /  0 mm
18:49 49.9 °F /  9.9 °C 41.2 °F /  5.1 °C 30.11 in /  1019.5 hPa Calm     72 % 0.00 in /  0 mm
18:54 49.5 °F /  9.7 °C 41.2 °F /  5.1 °C 30.11 in /  1019.5 hPa Calm     73 % 0.00 in /  0 mm
18:55 49.5 °F /  9.7 °C 41.2 °F /  5.1 °C 30.11 in /  1019.5 hPa Calm     73 % 0.00 in /  0 mm
18:59 49.3 °F /  9.6 °C 41.0 °F /  5 °C 30.11 in /  1019.5 hPa Calm     73 % 0.00 in /  0 mm
19:03 49.0 °F /  9.4 °C 40.7 °F /  4.8 °C 30.11 in /  1019.5 hPa Calm     73 % 0.00 in /  0 mm
19:08 48.9 °F /  9.4 °C 41.0 °F /  5 °C 30.11 in /  1019.5 hPa Calm     74 % 0.00 in /  0 mm
19:13 48.9 °F /  9.4 °C 40.6 °F /  4.8 °C 30.11 in /  1019.5 hPa Calm     73 % 0.00 in /  0 mm
19:14 48.9 °F /  9.4 °C 40.6 °F /  4.8 °C 30.11 in /  1019.5 hPa Calm     73 % 0.00 in /  0 mm
19:19 48.7 °F /  9.3 °C 40.4 °F /  4.7 °C 30.12 in /  1019.9 hPa Calm     73 % 0.00 in /  0 mm
19:20 48.7 °F /  9.3 °C 40.4 °F /  4.7 °C 30.12 in /  1019.9 hPa Calm     73 % 0.00 in /  0 mm
19:25 48.5 °F /  9.2 °C 40.6 °F /  4.8 °C 30.12 in /  1019.9 hPa Calm     74 % 0.00 in /  0 mm
19:26 48.4 °F /  9.1 °C 40.5 °F /  4.7 °C 30.12 in /  1019.9 hPa Calm     74 % 0.00 in /  0 mm
19:31 48.2 °F /  9 °C 40.6 °F /  4.8 °C 30.12 in /  1019.9 hPa WNW 1.2 mph /  1.9 km/h 1.2 mph /  1.9 km/h 75 % 0.00 in /  0 mm
19:35 47.6 °F /  8.7 °C 40.1 °F /  4.5 °C 30.12 in /  1019.9 hPa Calm     75 % 0.00 in /  0 mm
19:40 46.9 °F /  8.3 °C 40.1 °F /  4.5 °C 30.12 in /  1019.9 hPa Calm     77 % 0.00 in /  0 mm
19:45 46.6 °F /  8.1 °C 40.1 °F /  4.5 °C 30.12 in /  1019.9 hPa Calm     78 % 0.00 in /  0 mm
19:47 46.5 °F /  8.1 °C 40.0 °F /  4.4 °C 30.13 in /  1020.2 hPa Calm     78 % 0.00 in /  0 mm
19:51 46.5 °F /  8.1 °C 40.3 °F /  4.6 °C 30.13 in /  1020.2 hPa Calm     79 % 0.00 in /  0 mm
19:56 46.7 °F /  8.2 °C 40.2 °F /  4.6 °C 30.13 in /  1020.2 hPa Calm     78 % 0.00 in /  0 mm
19:58 46.7 °F /  8.2 °C 40.2 °F /  4.6 °C 30.13 in /  1020.2 hPa Calm     78 % 0.00 in /  0 mm
20:03 46.7 °F /  8.2 °C 40.2 °F /  4.6 °C 30.13 in /  1020.2 hPa Calm     78 % 0.00 in /  0 mm
20:05 46.5 °F /  8.1 °C 40.0 °F /  4.4 °C 30.13 in /  1020.2 hPa Calm     78 % 0.00 in /  0 mm
20:11 46.3 °F /  7.9 °C 40.1 °F /  4.5 °C 30.13 in /  1020.2 hPa Calm     79 % 0.00 in /  0 mm
20:13 46.2 °F /  7.9 °C 40.0 °F /  4.4 °C 30.13 in /  1020.2 hPa Calm     79 % 0.00 in /  0 mm
20:15 46.1 °F /  7.8 °C 39.9 °F /  4.4 °C 30.13 in /  1020.2 hPa Calm     79 % 0.00 in /  0 mm
20:18 45.9 °F /  7.7 °C 39.8 °F /  4.3 °C 30.13 in /  1020.2 hPa Calm     79 % 0.00 in /  0 mm
20:21 45.7 °F /  7.6 °C 39.6 °F /  4.2 °C 30.13 in /  1020.2 hPa Calm     79 % 0.00 in /  0 mm
20:24 45.6 °F /  7.6 °C 39.8 °F /  4.3 °C 30.13 in /  1020.2 hPa Calm     80 % 0.00 in /  0 mm
20:26 45.5 °F /  7.5 °C 39.7 °F /  4.3 °C 30.13 in /  1020.2 hPa Calm     80 % 0.00 in /  0 mm
20:29 45.2 °F /  7.3 °C 39.4 °F /  4.1 °C 30.13 in /  1020.2 hPa Calm     80 % 0.00 in /  0 mm
20:31 45.1 °F /  7.3 °C 39.6 °F /  4.2 °C 30.13 in /  1020.2 hPa Calm     81 % 0.00 in /  0 mm
20:35 45.0 °F /  7.2 °C 39.5 °F /  4.2 °C 30.13 in /  1020.2 hPa Calm     81 % 0.00 in /  0 mm
20:38 44.9 °F /  7.2 °C 39.4 °F /  4.1 °C 30.13 in /  1020.2 hPa Calm     81 % 0.00 in /  0 mm
20:40 44.8 °F /  7.1 °C 39.3 °F /  4.1 °C 30.13 in /  1020.2 hPa Calm     81 % 0.00 in /  0 mm
20:44 44.8 °F /  7.1 °C 39.3 °F /  4.1 °C 30.14 in /  1020.5 hPa Calm     81 % 0.00 in /  0 mm
20:46 45.0 °F /  7.2 °C 39.5 °F /  4.2 °C 30.13 in /  1020.2 hPa Calm     81 % 0.00 in /  0 mm
20:51 45.1 °F /  7.3 °C 39.3 °F /  4.1 °C 30.14 in /  1020.5 hPa Calm     80 % 0.00 in /  0 mm
20:52 45.1 °F /  7.3 °C 39.3 °F /  4.1 °C 30.14 in /  1020.5 hPa Calm     80 % 0.00 in /  0 mm
20:55 45.1 °F /  7.3 °C 39.3 °F /  4.1 °C 30.14 in /  1020.5 hPa Calm     80 % 0.00 in /  0 mm
20:58 45.1 °F /  7.3 °C 39.3 °F /  4.1 °C 30.14 in /  1020.5 hPa Calm     80 % 0.00 in /  0 mm
21:03 45.3 °F /  7.4 °C 39.5 °F /  4.2 °C 30.13 in /  1020.2 hPa Calm     80 % 0.00 in /  0 mm
21:04 45.3 °F /  7.4 °C 39.5 °F /  4.2 °C 30.14 in /  1020.5 hPa Calm     80 % 0.00 in /  0 mm
21:09 45.2 °F /  7.3 °C 39.1 °F /  3.9 °C 30.13 in /  1020.2 hPa Calm     79 % 0.00 in /  0 mm
21:11 45.1 °F /  7.3 °C 39.3 °F /  4.1 °C 30.14 in /  1020.5 hPa Calm     80 % 0.00 in /  0 mm
21:16 44.8 °F /  7.1 °C 39.0 °F /  3.9 °C 30.14 in /  1020.5 hPa Calm     80 % 0.00 in /  0 mm
21:17 44.7 °F /  7.1 °C 38.9 °F /  3.8 °C 30.14 in /  1020.5 hPa Calm     80 % 0.00 in /  0 mm
21:22 44.4 °F /  6.9 °C 38.6 °F /  3.7 °C 30.14 in /  1020.5 hPa Calm     80 % 0.00 in /  0 mm
21:23 44.4 °F /  6.9 °C 38.6 °F /  3.7 °C 30.14 in /  1020.5 hPa Calm     80 % 0.00 in /  0 mm
21:28 44.0 °F /  6.7 °C 38.5 °F /  3.6 °C 30.14 in /  1020.5 hPa Calm     81 % 0.00 in /  0 mm
21:33 43.7 °F /  6.5 °C 38.6 °F /  3.7 °C 30.14 in /  1020.5 hPa Calm     82 % 0.00 in /  0 mm
21:34 43.7 °F /  6.5 °C 38.6 °F /  3.7 °C 30.14 in /  1020.5 hPa Calm     82 % 0.00 in /  0 mm
21:39 43.6 °F /  6.4 °C 38.8 °F /  3.8 °C 30.14 in /  1020.5 hPa Calm     83 % 0.00 in /  0 mm
21:40 43.5 °F /  6.4 °C 38.7 °F /  3.7 °C 30.14 in /  1020.5 hPa Calm     83 % 0.00 in /  0 mm
21:45 43.3 °F /  6.3 °C 38.5 °F /  3.6 °C 30.14 in /  1020.5 hPa Calm     83 % 0.00 in /  0 mm
21:49 43.1 °F /  6.2 °C 38.6 °F /  3.7 °C 30.14 in /  1020.5 hPa Calm     84 % 0.00 in /  0 mm
21:50 43.1 °F /  6.2 °C 38.6 °F /  3.7 °C 30.14 in /  1020.5 hPa Calm     84 % 0.00 in /  0 mm
21:55 43.1 °F /  6.2 °C 38.6 °F /  3.7 °C 30.14 in /  1020.5 hPa Calm     84 % 0.00 in /  0 mm
21:58 43.2 °F /  6.2 °C 38.7 °F /  3.7 °C 30.14 in /  1020.5 hPa Calm     84 % 0.00 in /  0 mm
22:03 42.8 °F /  6 °C 38.0 °F /  3.3 °C 30.14 in /  1020.5 hPa Calm     83 % 0.00 in /  0 mm
22:07 42.8 °F /  6 °C 38.6 °F /  3.7 °C 30.14 in /  1020.5 hPa Calm     85 % 0.00 in /  0 mm
22:12 42.7 °F /  5.9 °C 38.2 °F /  3.4 °C 30.14 in /  1020.5 hPa Calm     84 % 0.00 in /  0 mm
22:13 42.6 °F /  5.9 °C 38.1 °F /  3.4 °C 30.15 in /  1020.9 hPa Calm     84 % 0.00 in /  0 mm
22:18 42.4 °F /  5.8 °C 37.9 °F /  3.3 °C 30.15 in /  1020.9 hPa Calm     84 % 0.00 in /  0 mm
22:23 42.1 °F /  5.6 °C 37.6 °F /  3.1 °C 30.15 in /  1020.9 hPa Calm     84 % 0.00 in /  0 mm
22:27 41.7 °F /  5.4 °C 37.2 °F /  2.9 °C 30.15 in /  1020.9 hPa Calm     84 % 0.00 in /  0 mm
22:32 41.3 °F /  5.2 °C 36.8 °F /  2.7 °C 30.16 in /  1021.2 hPa Calm     84 % 0.00 in /  0 mm
22:35 41.1 °F /  5.1 °C 36.9 °F /  2.7 °C 30.16 in /  1021.2 hPa Calm     85 % 0.00 in /  0 mm
22:40 41.1 °F /  5.1 °C 37.2 °F /  2.9 °C 30.16 in /  1021.2 hPa Calm     86 % 0.00 in /  0 mm
22:42 41.1 °F /  5.1 °C 37.5 °F /  3.1 °C 30.16 in /  1021.2 hPa Calm     87 % 0.00 in /  0 mm
22:43 41.1 °F /  5.1 °C 37.5 °F /  3.1 °C 30.16 in /  1021.2 hPa Calm     87 % 0.00 in /  0 mm
22:47 41.1 °F /  5.1 °C 37.5 °F /  3.1 °C 30.16 in /  1021.2 hPa Calm     87 % 0.00 in /  0 mm
22:52 41.1 °F /  5.1 °C 37.5 °F /  3.1 °C 30.17 in /  1021.6 hPa Calm     87 % 0.00 in /  0 mm
22:54 41.1 °F /  5.1 °C 37.5 °F /  3.1 °C 30.17 in /  1021.6 hPa Calm     87 % 0.00 in /  0 mm
22:59 41.0 °F /  5 °C 37.4 °F /  3 °C 30.17 in /  1021.6 hPa Calm     87 % 0.00 in /  0 mm
23:02 40.9 °F /  4.9 °C 37.6 °F /  3.1 °C 30.17 in /  1021.6 hPa Calm     88 % 0.00 in /  0 mm
23:06 40.8 °F /  4.9 °C 37.5 °F /  3.1 °C 30.17 in /  1021.6 hPa Calm     88 % 0.00 in /  0 mm
23:09 40.7 °F /  4.8 °C 37.1 °F /  2.8 °C 30.17 in /  1021.6 hPa Calm     87 % 0.00 in /  0 mm
23:14 40.6 °F /  4.8 °C 37.3 °F /  2.9 °C 30.17 in /  1021.6 hPa Calm     88 % 0.00 in /  0 mm
23:20 40.5 °F /  4.7 °C 37.2 °F /  2.9 °C 30.18 in /  1021.9 hPa Calm     88 % 0.00 in /  0 mm
23:21 40.4 °F /  4.7 °C 37.1 °F /  2.8 °C 30.18 in /  1021.9 hPa Calm     88 % 0.00 in /  0 mm
23:23 40.4 °F /  4.7 °C 37.1 °F /  2.8 °C 30.18 in /  1021.9 hPa Calm     88 % 0.00 in /  0 mm
23:26 40.3 °F /  4.6 °C 37.0 °F /  2.8 °C 30.18 in /  1021.9 hPa Calm     88 % 0.00 in /  0 mm
23:32 40.3 °F /  4.6 °C 37.0 °F /  2.8 °C 30.18 in /  1021.9 hPa Calm     88 % 0.00 in /  0 mm
23:37 40.1 °F /  4.5 °C 36.8 °F /  2.7 °C 30.18 in /  1021.9 hPa Calm     88 % 0.00 in /  0 mm
23:38 40.1 °F /  4.5 °C 36.8 °F /  2.7 °C 30.18 in /  1021.9 hPa Calm     88 % 0.00 in /  0 mm
23:42 40.0 °F /  4.4 °C 36.7 °F /  2.6 °C 30.19 in /  1022.2 hPa Calm     88 % 0.00 in /  0 mm
23:47 39.9 °F /  4.4 °C 36.6 °F /  2.6 °C 30.19 in /  1022.2 hPa Calm     88 % 0.00 in /  0 mm
23:48 39.8 °F /  4.3 °C 36.5 °F /  2.5 °C 30.18 in /  1021.9 hPa Calm     88 % 0.00 in /  0 mm
23:49 39.8 °F /  4.3 °C 36.5 °F /  2.5 °C 30.19 in /  1022.2 hPa Calm     88 % 0.00 in /  0 mm
23:54 39.8 °F /  4.3 °C 36.8 °F /  2.7 °C 30.19 in /  1022.2 hPa Calm     89 % 0.00 in /  0 mm
23:55 39.8 °F /  4.3 °C 36.8 °F /  2.7 °C 30.18 in /  1021.9 hPa Calm     89 % 0.00 in /  0 mm
23:59 40.0 °F /  4.4 °C 37.0 °F /  2.8 °C 30.19 in /  1022.2 hPa Calm     89 % 0.00 in /  0 mm
Park Place, Exeter, Tulare County, California, USA
Compliments of Weather Underground - 3.5 mb